sensor_id;sensor_type;location;lat;lon;timestamp;P1;durP1;ratioP1;P2;durP2;ratioP2
9260;SDS011;4667;42.726;23.252;2024-03-25T00:01:51;1.50;;;1.40;;
9260;SDS011;4667;42.726;23.252;2024-03-25T00:04:18;1.47;;;1.37;;
9260;SDS011;4667;42.726;23.252;2024-03-25T00:06:47;1.63;;;1.53;;
9260;SDS011;4667;42.726;23.252;2024-03-25T00:09:29;1.83;;;1.30;;
9260;SDS011;4667;42.726;23.252;2024-03-25T00:11:57;1.27;;;1.20;;
9260;SDS011;4667;42.726;23.252;2024-03-25T00:14:24;1.50;;;1.40;;
9260;SDS011;4667;42.726;23.252;2024-03-25T00:16:51;1.40;;;1.30;;
9260;SDS011;4667;42.726;23.252;2024-03-25T00:19:19;2.23;;;1.60;;
9260;SDS011;4667;42.726;23.252;2024-03-25T00:21:46;1.43;;;1.33;;
9260;SDS011;4667;42.726;23.252;2024-03-25T00:24:12;1.40;;;1.30;;
9260;SDS011;4667;42.726;23.252;2024-03-25T00:26:41;1.50;;;1.40;;
9260;SDS011;4667;42.726;23.252;2024-03-25T00:29:07;1.40;;;1.30;;
9260;SDS011;4667;42.726;23.252;2024-03-25T00:31:34;1.40;;;1.30;;
9260;SDS011;4667;42.726;23.252;2024-03-25T00:34:00;1.20;;;1.20;;
9260;SDS011;4667;42.726;23.252;2024-03-25T00:36:27;1.40;;;1.30;;
9260;SDS011;4667;42.726;23.252;2024-03-25T00:38:53;1.53;;;1.43;;
9260;SDS011;4667;42.726;23.252;2024-03-25T00:41:20;1.80;;;1.70;;
9260;SDS011;4667;42.726;23.252;2024-03-25T00:43:48;1.67;;;1.57;;
9260;SDS011;4667;42.726;23.252;2024-03-25T00:46:15;3.07;;;1.80;;
9260;SDS011;4667;42.726;23.252;2024-03-25T00:48:41;3.57;;;1.83;;
9260;SDS011;4667;42.726;23.252;2024-03-25T00:51:08;2.60;;;1.70;;
9260;SDS011;4667;42.726;23.252;2024-03-25T00:53:34;2.80;;;2.00;;
9260;SDS011;4667;42.726;23.252;2024-03-25T00:56:01;2.23;;;1.90;;
9260;SDS011;4667;42.726;23.252;2024-03-25T00:58:27;2.30;;;1.80;;
9260;SDS011;4667;42.726;23.252;2024-03-25T01:00:55;1.80;;;1.70;;
9260;SDS011;4667;42.726;23.252;2024-03-25T01:03:21;1.30;;;1.20;;
9260;SDS011;4667;42.726;23.252;2024-03-25T01:05:48;1.60;;;1.50;;
9260;SDS011;4667;42.726;23.252;2024-03-25T01:08:14;1.70;;;1.60;;
9260;SDS011;4667;42.726;23.252;2024-03-25T01:10:41;1.70;;;1.60;;
9260;SDS011;4667;42.726;23.252;2024-03-25T01:13:07;1.67;;;1.57;;
9260;SDS011;4667;42.726;23.252;2024-03-25T01:15:34;1.87;;;1.70;;
9260;SDS011;4667;42.726;23.252;2024-03-25T01:18:02;2.00;;;1.80;;
9260;SDS011;4667;42.726;23.252;2024-03-25T01:20:29;1.57;;;1.47;;
9260;SDS011;4667;42.726;23.252;2024-03-25T01:22:55;1.80;;;1.70;;
9260;SDS011;4667;42.726;23.252;2024-03-25T01:25:22;1.50;;;1.40;;
9260;SDS011;4667;42.726;23.252;2024-03-25T01:27:48;1.50;;;1.40;;
9260;SDS011;4667;42.726;23.252;2024-03-25T01:30:15;1.27;;;1.20;;
9260;SDS011;4667;42.726;23.252;2024-03-25T01:32:41;1.27;;;1.20;;
9260;SDS011;4667;42.726;23.252;2024-03-25T01:35:10;1.40;;;1.30;;
9260;SDS011;4667;42.726;23.252;2024-03-25T01:37:36;1.87;;;1.40;;
9260;SDS011;4667;42.726;23.252;2024-03-25T01:40:04;1.47;;;1.20;;
9260;SDS011;4667;42.726;23.252;2024-03-25T01:42:30;1.40;;;1.30;;
9260;SDS011;4667;42.726;23.252;2024-03-25T01:44:57;2.33;;;1.30;;
9260;SDS011;4667;42.726;23.252;2024-03-25T01:47:23;2.50;;;1.30;;
9260;SDS011;4667;42.726;23.252;2024-03-25T01:49:52;1.40;;;1.30;;
9260;SDS011;4667;42.726;23.252;2024-03-25T01:52:22;2.03;;;1.50;;
9260;SDS011;4667;42.726;23.252;2024-03-25T01:54:50;1.43;;;1.30;;
9260;SDS011;4667;42.726;23.252;2024-03-25T01:57:17;1.23;;;1.20;;
9260;SDS011;4667;42.726;23.252;2024-03-25T01:59:44;1.20;;;1.20;;
9260;SDS011;4667;42.726;23.252;2024-03-25T02:02:11;1.00;;;1.00;;
9260;SDS011;4667;42.726;23.252;2024-03-25T02:04:39;1.27;;;1.27;;
9260;SDS011;4667;42.726;23.252;2024-03-25T02:07:07;1.67;;;1.10;;
9260;SDS011;4667;42.726;23.252;2024-03-25T02:09:38;1.40;;;1.30;;
9260;SDS011;4667;42.726;23.252;2024-03-25T02:12:05;1.30;;;1.20;;
9260;SDS011;4667;42.726;23.252;2024-03-25T02:14:34;1.37;;;1.27;;
9260;SDS011;4667;42.726;23.252;2024-03-25T02:17:00;1.70;;;1.60;;
9260;SDS011;4667;42.726;23.252;2024-03-25T02:19:29;2.33;;;1.20;;
9260;SDS011;4667;42.726;23.252;2024-03-25T02:21:56;1.50;;;1.40;;
9260;SDS011;4667;42.726;23.252;2024-03-25T02:24:23;1.67;;;1.57;;
9260;SDS011;4667;42.726;23.252;2024-03-25T02:26:53;1.50;;;1.40;;
9260;SDS011;4667;42.726;23.252;2024-03-25T02:29:20;1.50;;;1.40;;
9260;SDS011;4667;42.726;23.252;2024-03-25T02:31:46;1.40;;;1.30;;
9260;SDS011;4667;42.726;23.252;2024-03-25T02:34:13;1.57;;;1.47;;
9260;SDS011;4667;42.726;23.252;2024-03-25T02:36:39;1.50;;;1.40;;
9260;SDS011;4667;42.726;23.252;2024-03-25T02:39:06;1.13;;;1.10;;
9260;SDS011;4667;42.726;23.252;2024-03-25T02:41:35;1.30;;;1.20;;
9260;SDS011;4667;42.726;23.252;2024-03-25T02:44:03;1.27;;;1.20;;
9260;SDS011;4667;42.726;23.252;2024-03-25T02:46:29;1.40;;;1.30;;
9260;SDS011;4667;42.726;23.252;2024-03-25T02:48:58;1.50;;;1.40;;
9260;SDS011;4667;42.726;23.252;2024-03-25T02:51:24;1.10;;;1.10;;
9260;SDS011;4667;42.726;23.252;2024-03-25T02:53:51;1.50;;;1.40;;
9260;SDS011;4667;42.726;23.252;2024-03-25T02:56:17;1.47;;;1.37;;
9260;SDS011;4667;42.726;23.252;2024-03-25T02:58:44;1.47;;;1.37;;
9260;SDS011;4667;42.726;23.252;2024-03-25T03:01:12;1.50;;;1.40;;
9260;SDS011;4667;42.726;23.252;2024-03-25T03:03:42;1.47;;;1.37;;
9260;SDS011;4667;42.726;23.252;2024-03-25T03:06:08;1.60;;;1.50;;
9260;SDS011;4667;42.726;23.252;2024-03-25T03:08:35;2.00;;;1.90;;
9260;SDS011;4667;42.726;23.252;2024-03-25T03:11:01;1.87;;;1.77;;
9260;SDS011;4667;42.726;23.252;2024-03-25T03:13:28;2.03;;;1.93;;
9260;SDS011;4667;42.726;23.252;2024-03-25T03:15:54;1.63;;;1.53;;
9260;SDS011;4667;42.726;23.252;2024-03-25T03:18:22;1.53;;;1.43;;
9260;SDS011;4667;42.726;23.252;2024-03-25T03:20:48;1.40;;;1.30;;
9260;SDS011;4667;42.726;23.252;2024-03-25T03:23:15;1.87;;;1.77;;
9260;SDS011;4667;42.726;23.252;2024-03-25T03:25:41;1.80;;;1.70;;
9260;SDS011;4667;42.726;23.252;2024-03-25T03:28:08;1.50;;;1.40;;
9260;SDS011;4667;42.726;23.252;2024-03-25T03:30:34;1.60;;;1.50;;
9260;SDS011;4667;42.726;23.252;2024-03-25T03:33:01;1.67;;;1.57;;
9260;SDS011;4667;42.726;23.252;2024-03-25T03:35:28;1.50;;;1.40;;
9260;SDS011;4667;42.726;23.252;2024-03-25T03:37:55;1.50;;;1.40;;
9260;SDS011;4667;42.726;23.252;2024-03-25T03:40:21;1.60;;;1.50;;
9260;SDS011;4667;42.726;23.252;2024-03-25T03:42:48;1.90;;;1.80;;
9260;SDS011;4667;42.726;23.252;2024-03-25T03:45:14;1.87;;;1.77;;
9260;SDS011;4667;42.726;23.252;2024-03-25T03:47:41;1.93;;;1.80;;
9260;SDS011;4667;42.726;23.252;2024-03-25T03:50:07;1.80;;;1.67;;
9260;SDS011;4667;42.726;23.252;2024-03-25T03:52:36;2.07;;;1.97;;
9260;SDS011;4667;42.726;23.252;2024-03-25T03:55:02;1.70;;;1.60;;
9260;SDS011;4667;42.726;23.252;2024-03-25T03:57:31;2.03;;;1.90;;
9260;SDS011;4667;42.726;23.252;2024-03-25T03:59:57;2.53;;;2.33;;
9260;SDS011;4667;42.726;23.252;2024-03-25T04:02:25;2.60;;;2.40;;
9260;SDS011;4667;42.726;23.252;2024-03-25T04:04:53;2.60;;;2.30;;
9260;SDS011;4667;42.726;23.252;2024-03-25T04:07:20;3.63;;;2.53;;
9260;SDS011;4667;42.726;23.252;2024-03-25T04:09:53;3.20;;;2.73;;
9260;SDS011;4667;42.726;23.252;2024-03-25T04:12:20;5.47;;;3.90;;
9260;SDS011;4667;42.726;23.252;2024-03-25T04:14:46;5.10;;;3.87;;
9260;SDS011;4667;42.726;23.252;2024-03-25T04:17:14;5.77;;;4.00;;
9260;SDS011;4667;42.726;23.252;2024-03-25T04:19:40;4.37;;;3.53;;
9260;SDS011;4667;42.726;23.252;2024-03-25T04:22:07;4.90;;;3.73;;
9260;SDS011;4667;42.726;23.252;2024-03-25T04:24:33;5.63;;;3.93;;
9260;SDS011;4667;42.726;23.252;2024-03-25T04:27:02;6.30;;;4.73;;
9260;SDS011;4667;42.726;23.252;2024-03-25T04:29:28;8.00;;;4.67;;
9260;SDS011;4667;42.726;23.252;2024-03-25T04:31:55;6.90;;;4.43;;
9260;SDS011;4667;42.726;23.252;2024-03-25T04:34:21;14.07;;;8.07;;
9260;SDS011;4667;42.726;23.252;2024-03-25T04:36:48;9.00;;;6.50;;
9260;SDS011;4667;42.726;23.252;2024-03-25T04:39:14;8.73;;;6.57;;
9260;SDS011;4667;42.726;23.252;2024-03-25T04:41:40;8.73;;;6.07;;
9260;SDS011;4667;42.726;23.252;2024-03-25T04:44:08;6.20;;;5.37;;
9260;SDS011;4667;42.726;23.252;2024-03-25T04:46:34;6.40;;;5.50;;
9260;SDS011;4667;42.726;23.252;2024-03-25T04:49:00;9.27;;;6.27;;
9260;SDS011;4667;42.726;23.252;2024-03-25T04:51:26;9.67;;;6.13;;
9260;SDS011;4667;42.726;23.252;2024-03-25T04:53:52;7.97;;;6.20;;
9260;SDS011;4667;42.726;23.252;2024-03-25T04:56:18;9.53;;;5.40;;
9260;SDS011;4667;42.726;23.252;2024-03-25T04:58:44;8.03;;;6.57;;
9260;SDS011;4667;42.726;23.252;2024-03-25T05:01:12;9.90;;;6.40;;
9260;SDS011;4667;42.726;23.252;2024-03-25T05:03:38;7.73;;;6.17;;
9260;SDS011;4667;42.726;23.252;2024-03-25T05:06:04;7.50;;;6.00;;
9260;SDS011;4667;42.726;23.252;2024-03-25T05:08:30;8.03;;;6.13;;
9260;SDS011;4667;42.726;23.252;2024-03-25T05:10:56;8.67;;;6.60;;
9260;SDS011;4667;42.726;23.252;2024-03-25T05:13:22;9.53;;;6.57;;
9260;SDS011;4667;42.726;23.252;2024-03-25T05:15:51;7.43;;;6.13;;
9260;SDS011;4667;42.726;23.252;2024-03-25T05:18:19;7.30;;;6.53;;
9260;SDS011;4667;42.726;23.252;2024-03-25T05:20:48;9.27;;;6.87;;
9260;SDS011;4667;42.726;23.252;2024-03-25T05:23:14;8.93;;;7.00;;
9260;SDS011;4667;42.726;23.252;2024-03-25T05:25:40;7.57;;;6.57;;
9260;SDS011;4667;42.726;23.252;2024-03-25T05:28:06;13.47;;;7.30;;
9260;SDS011;4667;42.726;23.252;2024-03-25T05:30:32;10.37;;;7.47;;
9260;SDS011;4667;42.726;23.252;2024-03-25T05:32:59;11.57;;;8.23;;
9260;SDS011;4667;42.726;23.252;2024-03-25T05:35:29;13.20;;;8.00;;
9260;SDS011;4667;42.726;23.252;2024-03-25T05:37:55;15.93;;;10.63;;
9260;SDS011;4667;42.726;23.252;2024-03-25T05:40:21;18.30;;;11.03;;
9260;SDS011;4667;42.726;23.252;2024-03-25T05:42:47;13.60;;;8.90;;
9260;SDS011;4667;42.726;23.252;2024-03-25T05:45:15;12.77;;;9.03;;
9260;SDS011;4667;42.726;23.252;2024-03-25T05:47:41;12.17;;;7.53;;
9260;SDS011;4667;42.726;23.252;2024-03-25T05:50:07;11.43;;;8.70;;
9260;SDS011;4667;42.726;23.252;2024-03-25T05:52:35;11.47;;;8.23;;
9260;SDS011;4667;42.726;23.252;2024-03-25T05:55:01;10.87;;;7.93;;
9260;SDS011;4667;42.726;23.252;2024-03-25T05:57:27;11.53;;;7.80;;
9260;SDS011;4667;42.726;23.252;2024-03-25T05:59:53;12.33;;;7.80;;
9260;SDS011;4667;42.726;23.252;2024-03-25T06:02:19;11.90;;;8.10;;
9260;SDS011;4667;42.726;23.252;2024-03-25T06:04:45;8.93;;;7.40;;
9260;SDS011;4667;42.726;23.252;2024-03-25T06:07:11;10.93;;;8.50;;
9260;SDS011;4667;42.726;23.252;2024-03-25T06:09:38;10.90;;;8.27;;
9260;SDS011;4667;42.726;23.252;2024-03-25T06:12:05;11.40;;;8.00;;
9260;SDS011;4667;42.726;23.252;2024-03-25T06:14:31;9.73;;;7.80;;
9260;SDS011;4667;42.726;23.252;2024-03-25T06:16:57;9.63;;;8.50;;
9260;SDS011;4667;42.726;23.252;2024-03-25T06:19:23;10.57;;;8.30;;
9260;SDS011;4667;42.726;23.252;2024-03-25T06:21:50;10.73;;;7.87;;
9260;SDS011;4667;42.726;23.252;2024-03-25T06:24:16;12.47;;;8.17;;
9260;SDS011;4667;42.726;23.252;2024-03-25T06:26:43;11.03;;;8.77;;
9260;SDS011;4667;42.726;23.252;2024-03-25T06:29:09;9.97;;;8.37;;
9260;SDS011;4667;42.726;23.252;2024-03-25T06:31:35;13.37;;;8.77;;
9260;SDS011;4667;42.726;23.252;2024-03-25T06:34:19;10.07;;;8.37;;
9260;SDS011;4667;42.726;23.252;2024-03-25T06:36:45;12.47;;;9.27;;
9260;SDS011;4667;42.726;23.252;2024-03-25T06:39:11;10.20;;;9.07;;
9260;SDS011;4667;42.726;23.252;2024-03-25T06:41:37;11.53;;;9.13;;
9260;SDS011;4667;42.726;23.252;2024-03-25T06:44:05;12.13;;;8.73;;
9260;SDS011;4667;42.726;23.252;2024-03-25T06:46:32;14.27;;;8.60;;
9260;SDS011;4667;42.726;23.252;2024-03-25T06:48:58;11.93;;;9.40;;
9260;SDS011;4667;42.726;23.252;2024-03-25T06:51:24;13.83;;;9.70;;
9260;SDS011;4667;42.726;23.252;2024-03-25T06:53:50;12.97;;;9.63;;
9260;SDS011;4667;42.726;23.252;2024-03-25T06:56:16;13.33;;;9.33;;
9260;SDS011;4667;42.726;23.252;2024-03-25T06:58:42;10.83;;;8.83;;
9260;SDS011;4667;42.726;23.252;2024-03-25T07:01:10;11.83;;;10.00;;
9260;SDS011;4667;42.726;23.252;2024-03-25T07:03:37;10.97;;;8.07;;
9260;SDS011;4667;42.726;23.252;2024-03-25T07:06:04;10.43;;;8.90;;
9260;SDS011;4667;42.726;23.252;2024-03-25T07:08:30;8.77;;;7.57;;
9260;SDS011;4667;42.726;23.252;2024-03-25T07:10:57;13.70;;;10.47;;
9260;SDS011;4667;42.726;23.252;2024-03-25T07:13:23;12.13;;;8.27;;
9260;SDS011;4667;42.726;23.252;2024-03-25T07:15:49;11.87;;;9.00;;
9260;SDS011;4667;42.726;23.252;2024-03-25T07:18:17;10.57;;;9.30;;
9260;SDS011;4667;42.726;23.252;2024-03-25T07:20:44;10.93;;;8.67;;
9260;SDS011;4667;42.726;23.252;2024-03-25T07:23:10;9.73;;;7.90;;
9260;SDS011;4667;42.726;23.252;2024-03-25T07:25:36;9.57;;;8.13;;
9260;SDS011;4667;42.726;23.252;2024-03-25T07:28:03;9.83;;;7.50;;
9260;SDS011;4667;42.726;23.252;2024-03-25T07:30:29;11.63;;;8.80;;
9260;SDS011;4667;42.726;23.252;2024-03-25T07:32:55;9.67;;;8.60;;
9260;SDS011;4667;42.726;23.252;2024-03-25T07:35:25;9.00;;;7.40;;
9260;SDS011;4667;42.726;23.252;2024-03-25T07:37:51;7.53;;;6.73;;
9260;SDS011;4667;42.726;23.252;2024-03-25T07:40:17;10.53;;;8.00;;
9260;SDS011;4667;42.726;23.252;2024-03-25T07:42:44;9.80;;;8.20;;
9260;SDS011;4667;42.726;23.252;2024-03-25T07:45:10;12.37;;;8.07;;
9260;SDS011;4667;42.726;23.252;2024-03-25T07:47:36;7.57;;;6.87;;
9260;SDS011;4667;42.726;23.252;2024-03-25T07:50:02;10.03;;;7.57;;
9260;SDS011;4667;42.726;23.252;2024-03-25T07:52:30;11.30;;;8.53;;
9260;SDS011;4667;42.726;23.252;2024-03-25T07:58:04;7.80;;;6.93;;
9260;SDS011;4667;42.726;23.252;2024-03-25T08:00:30;9.33;;;7.87;;
9260;SDS011;4667;42.726;23.252;2024-03-25T08:02:56;10.43;;;7.17;;
9260;SDS011;4667;42.726;23.252;2024-03-25T08:05:22;8.37;;;7.00;;
9260;SDS011;4667;42.726;23.252;2024-03-25T08:07:49;11.33;;;7.87;;
9260;SDS011;4667;42.726;23.252;2024-03-25T08:10:15;8.27;;;6.73;;
9260;SDS011;4667;42.726;23.252;2024-03-25T08:12:41;10.37;;;7.57;;
9260;SDS011;4667;42.726;23.252;2024-03-25T08:15:08;8.23;;;6.50;;
9260;SDS011;4667;42.726;23.252;2024-03-25T08:17:34;7.97;;;6.90;;
9260;SDS011;4667;42.726;23.252;2024-03-25T08:20:00;7.53;;;6.53;;
9260;SDS011;4667;42.726;23.252;2024-03-25T08:22:26;6.87;;;6.23;;
9260;SDS011;4667;42.726;23.252;2024-03-25T08:24:54;7.67;;;6.83;;
9260;SDS011;4667;42.726;23.252;2024-03-25T08:27:20;7.70;;;7.00;;
9260;SDS011;4667;42.726;23.252;2024-03-25T08:29:46;6.93;;;6.33;;
9260;SDS011;4667;42.726;23.252;2024-03-25T08:32:12;7.50;;;6.77;;
9260;SDS011;4667;42.726;23.252;2024-03-25T08:34:38;7.23;;;6.17;;
9260;SDS011;4667;42.726;23.252;2024-03-25T08:37:04;7.03;;;6.33;;
9260;SDS011;4667;42.726;23.252;2024-03-25T08:39:29;7.07;;;6.37;;
9260;SDS011;4667;42.726;23.252;2024-03-25T08:41:57;7.50;;;6.33;;
9260;SDS011;4667;42.726;23.252;2024-03-25T08:44:23;6.90;;;6.27;;
9260;SDS011;4667;42.726;23.252;2024-03-25T08:46:49;8.33;;;6.43;;
9260;SDS011;4667;42.726;23.252;2024-03-25T08:49:15;7.17;;;6.47;;
9260;SDS011;4667;42.726;23.252;2024-03-25T08:51:41;8.13;;;6.20;;
9260;SDS011;4667;42.726;23.252;2024-03-25T08:54:08;6.57;;;5.80;;
9260;SDS011;4667;42.726;23.252;2024-03-25T08:56:33;7.13;;;6.43;;
9260;SDS011;4667;42.726;23.252;2024-03-25T08:59:01;9.67;;;6.20;;
9260;SDS011;4667;42.726;23.252;2024-03-25T09:01:27;7.17;;;6.10;;
9260;SDS011;4667;42.726;23.252;2024-03-25T09:03:53;7.73;;;6.57;;
9260;SDS011;4667;42.726;23.252;2024-03-25T09:06:19;6.53;;;5.93;;
9260;SDS011;4667;42.726;23.252;2024-03-25T09:08:45;9.30;;;6.73;;
9260;SDS011;4667;42.726;23.252;2024-03-25T09:11:30;8.00;;;6.40;;
9260;SDS011;4667;42.726;23.252;2024-03-25T09:13:55;8.57;;;6.67;;
9260;SDS011;4667;42.726;23.252;2024-03-25T09:16:23;7.63;;;5.70;;
9260;SDS011;4667;42.726;23.252;2024-03-25T09:18:49;6.70;;;6.00;;
9260;SDS011;4667;42.726;23.252;2024-03-25T09:21:15;10.33;;;6.60;;
9260;SDS011;4667;42.726;23.252;2024-03-25T09:23:41;7.27;;;6.57;;
9260;SDS011;4667;42.726;23.252;2024-03-25T09:26:07;7.77;;;6.67;;
9260;SDS011;4667;42.726;23.252;2024-03-25T09:28:32;8.33;;;6.77;;
9260;SDS011;4667;42.726;23.252;2024-03-25T09:30:58;7.37;;;6.30;;
9260;SDS011;4667;42.726;23.252;2024-03-25T09:33:30;8.17;;;7.17;;
9260;SDS011;4667;42.726;23.252;2024-03-25T09:35:55;6.77;;;6.07;;
9260;SDS011;4667;42.726;23.252;2024-03-25T09:38:22;6.47;;;5.87;;
9260;SDS011;4667;42.726;23.252;2024-03-25T09:40:48;7.30;;;6.17;;
9260;SDS011;4667;42.726;23.252;2024-03-25T09:43:20;10.10;;;6.20;;
9260;SDS011;4667;42.726;23.252;2024-03-25T09:45:57;6.87;;;6.17;;
9260;SDS011;4667;42.726;23.252;2024-03-25T09:48:24;6.73;;;6.03;;
9260;SDS011;4667;42.726;23.252;2024-03-25T09:50:52;6.93;;;5.93;;
9260;SDS011;4667;42.726;23.252;2024-03-25T09:53:19;7.57;;;5.83;;
9260;SDS011;4667;42.726;23.252;2024-03-25T09:55:46;5.50;;;4.93;;
9260;SDS011;4667;42.726;23.252;2024-03-25T09:58:12;6.23;;;5.10;;
9260;SDS011;4667;42.726;23.252;2024-03-25T10:00:39;6.67;;;5.10;;
9260;SDS011;4667;42.726;23.252;2024-03-25T10:03:05;5.60;;;5.00;;
9260;SDS011;4667;42.726;23.252;2024-03-25T10:05:31;9.60;;;5.40;;
9260;SDS011;4667;42.726;23.252;2024-03-25T10:08:00;6.10;;;5.20;;
9260;SDS011;4667;42.726;23.252;2024-03-25T10:10:26;6.17;;;5.00;;
9260;SDS011;4667;42.726;23.252;2024-03-25T10:12:54;5.40;;;4.90;;
9260;SDS011;4667;42.726;23.252;2024-03-25T10:15:20;4.90;;;4.50;;
9260;SDS011;4667;42.726;23.252;2024-03-25T10:17:48;5.80;;;5.20;;
9260;SDS011;4667;42.726;23.252;2024-03-25T10:20:15;5.77;;;4.73;;
9260;SDS011;4667;42.726;23.252;2024-03-25T10:22:41;5.40;;;4.00;;
9260;SDS011;4667;42.726;23.252;2024-03-25T10:25:18;5.60;;;4.80;;
9260;SDS011;4667;42.726;23.252;2024-03-25T10:27:54;6.43;;;4.10;;
9260;SDS011;4667;42.726;23.252;2024-03-25T10:30:21;6.10;;;4.20;;
9260;SDS011;4667;42.726;23.252;2024-03-25T10:32:59;3.63;;;3.30;;
9260;SDS011;4667;42.726;23.252;2024-03-25T10:35:29;3.97;;;3.53;;
9260;SDS011;4667;42.726;23.252;2024-03-25T10:38:00;4.33;;;3.93;;
9260;SDS011;4667;42.726;23.252;2024-03-25T10:40:28;4.57;;;4.17;;
9260;SDS011;4667;42.726;23.252;2024-03-25T10:42:57;6.43;;;4.77;;
9260;SDS011;4667;42.726;23.252;2024-03-25T10:45:27;7.57;;;5.57;;
9260;SDS011;4667;42.726;23.252;2024-03-25T10:47:58;5.00;;;3.90;;
9260;SDS011;4667;42.726;23.252;2024-03-25T10:50:28;5.13;;;4.50;;
9260;SDS011;4667;42.726;23.252;2024-03-25T10:52:56;4.73;;;4.23;;
9260;SDS011;4667;42.726;23.252;2024-03-25T10:55:23;4.77;;;4.37;;
9260;SDS011;4667;42.726;23.252;2024-03-25T10:57:55;5.30;;;4.80;;
9260;SDS011;4667;42.726;23.252;2024-03-25T11:00:22;4.20;;;3.83;;
9260;SDS011;4667;42.726;23.252;2024-03-25T11:02:48;4.37;;;3.97;;
9260;SDS011;4667;42.726;23.252;2024-03-25T11:05:16;4.10;;;3.70;;
9260;SDS011;4667;42.726;23.252;2024-03-25T11:07:43;5.30;;;3.70;;
9260;SDS011;4667;42.726;23.252;2024-03-25T11:10:09;4.23;;;3.57;;
9260;SDS011;4667;42.726;23.252;2024-03-25T11:12:36;4.23;;;3.53;;
9260;SDS011;4667;42.726;23.252;2024-03-25T11:15:04;20.50;;;3.83;;
9260;SDS011;4667;42.726;23.252;2024-03-25T11:17:32;3.77;;;3.30;;
9260;SDS011;4667;42.726;23.252;2024-03-25T11:20:07;4.87;;;4.10;;
9260;SDS011;4667;42.726;23.252;2024-03-25T11:22:35;3.60;;;3.20;;
9260;SDS011;4667;42.726;23.252;2024-03-25T11:25:07;2.87;;;2.67;;
9260;SDS011;4667;42.726;23.252;2024-03-25T11:27:37;3.20;;;2.90;;
9260;SDS011;4667;42.726;23.252;2024-03-25T11:30:04;5.03;;;3.27;;
9260;SDS011;4667;42.726;23.252;2024-03-25T11:32:40;4.70;;;4.10;;
9260;SDS011;4667;42.726;23.252;2024-03-25T11:35:09;3.87;;;3.50;;
9260;SDS011;4667;42.726;23.252;2024-03-25T11:37:41;4.30;;;3.90;;
9260;SDS011;4667;42.726;23.252;2024-03-25T11:40:08;4.43;;;3.47;;
9260;SDS011;4667;42.726;23.252;2024-03-25T11:42:35;3.50;;;3.20;;
9260;SDS011;4667;42.726;23.252;2024-03-25T11:45:05;3.67;;;3.00;;
9260;SDS011;4667;42.726;23.252;2024-03-25T11:47:37;3.70;;;3.30;;
9260;SDS011;4667;42.726;23.252;2024-03-25T11:50:07;4.43;;;3.40;;
9260;SDS011;4667;42.726;23.252;2024-03-25T11:52:33;2.87;;;2.67;;
9260;SDS011;4667;42.726;23.252;2024-03-25T11:55:01;3.23;;;2.80;;
9260;SDS011;4667;42.726;23.252;2024-03-25T11:57:27;3.93;;;2.90;;
9260;SDS011;4667;42.726;23.252;2024-03-25T11:59:54;3.20;;;2.90;;
9260;SDS011;4667;42.726;23.252;2024-03-25T12:02:21;3.50;;;3.10;;
9260;SDS011;4667;42.726;23.252;2024-03-25T12:04:47;3.63;;;2.97;;
9260;SDS011;4667;42.726;23.252;2024-03-25T12:07:14;3.87;;;3.50;;
9260;SDS011;4667;42.726;23.252;2024-03-25T12:09:40;5.83;;;3.43;;
9260;SDS011;4667;42.726;23.252;2024-03-25T12:12:25;3.47;;;3.17;;
9260;SDS011;4667;42.726;23.252;2024-03-25T12:14:51;3.57;;;3.13;;
9260;SDS011;4667;42.726;23.252;2024-03-25T12:17:23;3.40;;;2.90;;
9260;SDS011;4667;42.726;23.252;2024-03-25T12:19:59;4.03;;;3.63;;
9260;SDS011;4667;42.726;23.252;2024-03-25T12:22:26;3.70;;;3.00;;
9260;SDS011;4667;42.726;23.252;2024-03-25T12:24:52;3.57;;;3.07;;
9260;SDS011;4667;42.726;23.252;2024-03-25T12:27:18;4.03;;;3.00;;
9260;SDS011;4667;42.726;23.252;2024-03-25T12:29:44;3.60;;;2.77;;
9260;SDS011;4667;42.726;23.252;2024-03-25T12:32:10;3.43;;;3.13;;
9260;SDS011;4667;42.726;23.252;2024-03-25T12:34:37;3.73;;;2.60;;
9260;SDS011;4667;42.726;23.252;2024-03-25T12:37:03;3.53;;;2.93;;
9260;SDS011;4667;42.726;23.252;2024-03-25T12:39:29;6.30;;;2.83;;
9260;SDS011;4667;42.726;23.252;2024-03-25T12:41:55;3.00;;;2.50;;
9260;SDS011;4667;42.726;23.252;2024-03-25T12:44:21;3.43;;;2.60;;
9260;SDS011;4667;42.726;23.252;2024-03-25T12:46:47;3.73;;;2.70;;
9260;SDS011;4667;42.726;23.252;2024-03-25T12:49:13;3.17;;;2.87;;
9260;SDS011;4667;42.726;23.252;2024-03-25T12:51:41;4.47;;;3.40;;
9260;SDS011;4667;42.726;23.252;2024-03-25T12:54:07;3.83;;;2.80;;
9260;SDS011;4667;42.726;23.252;2024-03-25T12:56:32;3.87;;;3.43;;
9260;SDS011;4667;42.726;23.252;2024-03-25T12:58:58;4.30;;;3.47;;
9260;SDS011;4667;42.726;23.252;2024-03-25T13:01:24;3.73;;;3.23;;
9260;SDS011;4667;42.726;23.252;2024-03-25T13:03:50;4.43;;;3.57;;
9260;SDS011;4667;42.726;23.252;2024-03-25T13:06:16;3.20;;;2.80;;
9260;SDS011;4667;42.726;23.252;2024-03-25T13:08:43;4.20;;;3.80;;
9260;SDS011;4667;42.726;23.252;2024-03-25T13:11:09;3.80;;;3.13;;
9260;SDS011;4667;42.726;23.252;2024-03-25T13:13:35;6.23;;;4.17;;
9260;SDS011;4667;42.726;23.252;2024-03-25T13:16:01;4.67;;;3.43;;
9260;SDS011;4667;42.726;23.252;2024-03-25T13:18:27;5.97;;;3.23;;
9260;SDS011;4667;42.726;23.252;2024-03-25T13:20:53;3.57;;;3.27;;
9260;SDS011;4667;42.726;23.252;2024-03-25T13:23:19;4.50;;;2.90;;
9260;SDS011;4667;42.726;23.252;2024-03-25T13:25:46;2.90;;;2.60;;
9260;SDS011;4667;42.726;23.252;2024-03-25T13:28:12;3.50;;;3.20;;
9260;SDS011;4667;42.726;23.252;2024-03-25T13:30:38;2.87;;;2.57;;
9260;SDS011;4667;42.726;23.252;2024-03-25T13:33:04;4.30;;;2.77;;
9260;SDS011;4667;42.726;23.252;2024-03-25T13:35:30;3.20;;;2.90;;
9260;SDS011;4667;42.726;23.252;2024-03-25T13:37:56;4.47;;;2.73;;
9260;SDS011;4667;42.726;23.252;2024-03-25T13:40:22;2.57;;;2.17;;
9260;SDS011;4667;42.726;23.252;2024-03-25T13:42:49;5.20;;;2.73;;
9260;SDS011;4667;42.726;23.252;2024-03-25T13:45:15;2.60;;;2.30;;
9260;SDS011;4667;42.726;23.252;2024-03-25T13:47:41;3.50;;;2.53;;
9260;SDS011;4667;42.726;23.252;2024-03-25T13:50:07;2.57;;;2.27;;
9260;SDS011;4667;42.726;23.252;2024-03-25T13:52:33;5.23;;;1.90;;
9260;SDS011;4667;42.726;23.252;2024-03-25T13:54:59;3.43;;;1.60;;
9260;SDS011;4667;42.726;23.252;2024-03-25T13:57:26;4.20;;;1.63;;
9260;SDS011;4667;42.726;23.252;2024-03-25T13:59:53;2.60;;;1.87;;
9260;SDS011;4667;42.726;23.252;2024-03-25T14:02:19;3.40;;;2.00;;
9260;SDS011;4667;42.726;23.252;2024-03-25T14:04:48;1.93;;;1.73;;
9260;SDS011;4667;42.726;23.252;2024-03-25T14:07:13;2.00;;;1.80;;
9260;SDS011;4667;42.726;23.252;2024-03-25T14:09:39;2.93;;;2.20;;
9260;SDS011;4667;42.726;23.252;2024-03-25T14:12:05;1.90;;;1.80;;
9260;SDS011;4667;42.726;23.252;2024-03-25T14:14:32;1.50;;;1.33;;
9260;SDS011;4667;42.726;23.252;2024-03-25T14:17:00;4.77;;;1.70;;
9260;SDS011;4667;42.726;23.252;2024-03-25T14:19:26;2.03;;;1.50;;
9260;SDS011;4667;42.726;23.252;2024-03-25T14:21:55;1.90;;;1.70;;
9260;SDS011;4667;42.726;23.252;2024-03-25T14:24:20;2.03;;;1.90;;
9260;SDS011;4667;42.726;23.252;2024-03-25T14:26:46;2.20;;;1.80;;
9260;SDS011;4667;42.726;23.252;2024-03-25T14:29:12;4.77;;;2.03;;
9260;SDS011;4667;42.726;23.252;2024-03-25T14:31:38;2.27;;;2.07;;
9260;SDS011;4667;42.726;23.252;2024-03-25T14:34:05;3.97;;;1.83;;
9260;SDS011;4667;42.726;23.252;2024-03-25T14:36:31;3.73;;;1.63;;
9260;SDS011;4667;42.726;23.252;2024-03-25T14:38:58;1.60;;;1.43;;
9260;SDS011;4667;42.726;23.252;2024-03-25T14:41:24;3.00;;;1.60;;
9260;SDS011;4667;42.726;23.252;2024-03-25T14:43:50;3.63;;;1.93;;
9260;SDS011;4667;42.726;23.252;2024-03-25T14:46:16;3.00;;;1.67;;
9260;SDS011;4667;42.726;23.252;2024-03-25T14:48:42;2.53;;;1.60;;
9260;SDS011;4667;42.726;23.252;2024-03-25T14:51:10;2.53;;;1.63;;
9260;SDS011;4667;42.726;23.252;2024-03-25T14:53:36;2.67;;;2.28;;
9260;SDS011;4667;42.726;23.252;2024-03-25T14:56:02;3.58;;;2.05;;
9260;SDS011;4667;42.726;23.252;2024-03-25T14:58:28;4.60;;;1.80;;
9260;SDS011;4667;42.726;23.252;2024-03-25T15:00:54;1.80;;;1.70;;
9260;SDS011;4667;42.726;23.252;2024-03-25T15:03:20;4.22;;;2.28;;